Flight Track Log - Related Links

Times and Time Zones

All times are in EDT time to prevent confusion due to time zone crossing. See the UAL481 flight status page for this flight to view local times or setup timezone preferences in your user account.

Time Position Orientation Groundspeed Altitude Reporting Facility
EDT Latitude Longitude Course Direction KTS MPH feet Rate Location/Type
Tue 06:33:34 PM 42.7278 -73.8053 283° West 158 182 1,300  Level Boston Center
Tue 06:34:29 PM 42.7200 -73.7458 100° East 224 258 3,000 2,229 Climbing Boston Center
Tue 06:35:54 PM 42.7858 -73.6508 47° Northeast 285 328 6,500 2,897 Climbing Boston Center
Tue 06:36:00 PM 42.8000 -74.1413 270° West  Level FlightAware Approximate
Tue 06:36:54 PM 42.8472 -73.5586 48° Northeast 293 337 10,000  Level Boston Center
Tue 06:37:00 PM 42.8195 -74.2572 284° West  Level FlightAware Approximate
Tue 06:37:55 PM 42.9064 -73.4747 46° Northeast 316 364 11,200  Level Boston Center
Tue 06:38:00 PM 42.8400 -74.3732 283° West  Level FlightAware Approximate
Tue 06:38:52 PM 42.9989 -73.3769 38° Northeast 361 415 13,700  Level Boston Center
Tue 06:39:53 PM 43.0839 -73.4208 339° North 312 359 15,800 2,311 Climbing Boston Center
Tue 06:40:54 PM 43.1936 -73.4967 333° Northwest 362 417 18,400 2,231 Climbing Boston Center
Tue 06:41:54 PM 43.2806 -73.5639 331° Northwest 389 448 20,300 1,800 Climbing Boston Center
Tue 06:42:54 PM 43.3778 -73.6483 328° Northwest 400 460 22,000 1,765 Climbing Boston Center
Tue 06:43:53 PM 43.4769 -73.7306 329° Northwest 407 468 23,800 1,361 Climbing Boston Center
Tue 06:44:53 PM 43.5483 -73.8467 310° West 396 456 24,700 645 Climbing Boston Center
Tue 06:45:54 PM 43.5386 -73.9694 264° West 370 426 25,100 1,289 Climbing Boston Center
Tue 06:46:54 PM 43.5089 -74.1547 258° West 380 437 27,300 2,000 Climbing Boston Center
Tue 06:47:54 PM 43.4856 -74.3031 258° West 390 449 29,100 1,729 Climbing Boston Center
Tue 06:48:52 PM 43.4603 -74.4453 256° West 395 455 30,700 1,576 Climbing Boston Center
Tue 06:49:52 PM 43.4389 -74.5906 259° West 390 449 32,200 1,537 Climbing Boston Center
Tue 06:50:53 PM 43.4153 -74.7325 257° West 390 449 33,800 1,438 Climbing Boston Center
Tue 06:51:53 PM 43.3917 -74.8689 257° West 384 442 35,100 1,150 Climbing Boston Center
Tue 06:52:53 PM 43.3700 -74.9992 257° West 374 430 36,100 942 Climbing Boston Center
Tue 06:53:54 PM 43.3436 -75.1525 257° West 369 425 37,000 908 Climbing Boston Center
Tue 06:54:52 PM 43.3214 -75.2914 258° West 369 425 37,900 508 Climbing Boston Center
Tue 06:55:52 PM 43.2969 -75.4272 256° West 377 434 38,000 50 Climbing Boston Center
Tue 06:56:53 PM 43.2747 -75.5631 257° West 378 435 38,000  Level Boston Center
Tue 06:57:53 PM 43.2522 -75.6931 257° West 370 426 38,000 -50 Level Boston Center
Tue 06:58:54 PM 43.2297 -75.8286 257° West 370 426 37,900 -49 Descending Boston Center
Tue 06:59:55 PM 43.2044 -75.9667 256° West 370 426 37,900 51 Level Boston Center
Tue 07:00:52 PM 43.1794 -76.1050 256° West 375 432 38,000 51 Climbing Boston Center
Tue 07:01:53 PM 43.1600 -76.2461 259° West 375 432 38,000 -44 Level Boston Center
Tue 07:03:09 PM 43.1586 -76.4189 269° West 392 451 37,900 -44 Descending Cleveland Center
Tue 07:04:09 PM 43.1594 -76.5614 271° West 387 445 37,900 50 Level Cleveland Center
Tue 07:05:10 PM 43.1581 -76.7067 269° West 387 445 38,000 50 Climbing Cleveland Center
Tue 07:06:09 PM 43.1586 -76.8461 270° West 387 445 38,000  Level Cleveland Center
Tue 07:07:09 PM 43.1589 -76.9914 270° West 387 445 38,000  Level Cleveland Center
Tue 07:08:09 PM 43.1569 -77.1336 269° West 387 445 38,000  Level Cleveland Center
Tue 07:09:09 PM 43.1569 -77.2761 270° West 387 445 38,000  Level Cleveland Center
Tue 07:10:09 PM 43.1547 -77.4214 269° West 387 445 38,000  Level Cleveland Center
Tue 07:11:09 PM 43.1544 -77.5636 270° West 387 445 38,000  Level Cleveland Center
Tue 07:12:09 PM 43.1519 -77.7089 269° West 387 445 38,000  Level Cleveland Center
Tue 07:13:09 PM 43.1511 -77.8542 270° West 387 445 38,000  Level Cleveland Center
Tue 07:14:09 PM 43.1486 -78.0164 269° West 387 445 38,000  Level Cleveland Center
Tue 07:15:09 PM 43.1456 -78.1617 268° West 387 445 38,000  Level Cleveland Center
Tue 07:16:09 PM 43.1444 -78.3097 269° West 387 445 38,000  Level Cleveland Center
Tue 07:17:09 PM 43.1408 -78.4550 268° West 387 445 38,000  Level Cleveland Center
Tue 07:18:40 PM 43.1333 -78.6500 267° West 380 437 38,000  Level Toronto Center
Tue 07:19:40 PM 43.1167 -78.7833 260° West 370 426 38,000  Level Toronto Center
Tue 07:20:40 PM 43.1167 -78.9333 270° West 360 414 38,000  Level Toronto Center
Tue 07:21:40 PM 43.1167 -79.0667 270° West 360 414 38,000  Level Toronto Center
Tue 07:22:40 PM 43.1167 -79.2000 270° West 360 414 38,000  Level Toronto Center
Tue 07:23:40 PM 43.1000 -79.3333 260° West 370 426 38,000  Level Toronto Center
Tue 07:24:40 PM 43.1000 -79.4667 270° West 370 426 38,000  Level Toronto Center
Tue 07:25:40 PM 43.1000 -79.6333 270° West 370 426 38,000  Level Toronto Center
Tue 07:26:40 PM 43.0833 -79.7500 259° West 370 426 38,000  Level Toronto Center
Tue 07:27:40 PM 43.0833 -79.8833 270° West 360 414 38,000  Level Toronto Center
Tue 07:28:40 PM 43.0833 -80.0500 270° West 380 437 38,000  Level Toronto Center
Tue 07:29:40 PM 43.0667 -80.2000 261° West 390 449 38,000  Level Toronto Center
Tue 07:30:40 PM 43.0667 -80.3333 270° West 390 449 38,000  Level Toronto Center
Tue 07:31:40 PM 43.0667 -80.4833 270° West 390 449 38,000  Level Toronto Center
Tue 07:32:40 PM 43.0500 -80.6333 261° West 390 449 38,000  Level Toronto Center
Tue 07:33:40 PM 43.0500 -80.7667 270° West 390 449 38,000  Level Toronto Center
Tue 07:34:40 PM 43.0333 -80.9333 262° West 390 449 38,000  Level Toronto Center
Tue 07:35:40 PM 43.0167 -81.0667 260° West 390 449 38,000  Level Toronto Center
Tue 07:36:40 PM 43.0167 -81.2333 270° West 390 449 38,000  Level Toronto Center
Tue 07:37:40 PM 43.0167 -81.3667 270° West 390 449 38,000  Level Toronto Center
Tue 07:38:40 PM 43.0167 -81.5333 270° West 390 449 38,000  Level Toronto Center
Tue 07:39:40 PM 43.0167 -81.6667 270° West 390 449 38,000  Level Toronto Center
Tue 07:40:40 PM 43.0167 -81.8167 270° West 390 449 38,000  Level Toronto Center
Tue 07:41:40 PM 43.0000 -81.9667 261° West 390 449 38,000  Level Toronto Center
Tue 07:42:40 PM 43.0000 -82.1167 270° West 390 449 38,000  Level Toronto Center
Tue 07:43:40 PM 43.0000 -82.2500 270° West 400 460 38,000  Level Toronto Center
Tue 07:44:40 PM 43.0000 -82.4167 270° West 400 460 38,000  Level Toronto Center
Tue 07:45:40 PM 43.0000 -82.5667 270° West 400 460 38,000 -300 Level Toronto Center
Tue 07:46:40 PM 42.9833 -82.7167 261° West 400 460 37,400 -690 Descending Toronto Center
Tue 07:47:33 PM 42.9964 -82.8511 278° West 401 461 36,700 -903 Descending Cleveland Center
Tue 07:48:33 PM 42.9933 -83.0017 268° West 406 467 35,700 -1,000 Descending Cleveland Center
Tue 07:49:33 PM 42.9881 -83.1461 267° West 394 453 34,700 -950 Descending Cleveland Center
Tue 07:50:33 PM 42.9831 -83.2850 267° West 383 441 33,800 -1,000 Descending Cleveland Center
Tue 07:51:33 PM 42.9775 -83.4267 267° West 378 435 32,700 -1,000 Descending Cleveland Center
Tue 07:52:33 PM 42.9717 -83.5683 267° West 378 435 31,800 -950 Descending Cleveland Center
Tue 07:53:33 PM 42.9661 -83.7042 267° West 378 435 30,800 -900 Descending Cleveland Center
Tue 07:54:33 PM 42.9558 -83.8456 264° West 378 435 30,000 -400 Descending Cleveland Center
Tue 07:55:33 PM 42.9389 -84.0036 262° West 383 441 30,000  Level Cleveland Center
Tue 07:56:33 PM 42.9283 -84.1447 264° West 388 447 30,000  Level Cleveland Center
Tue 07:58:07 PM 42.9081 -84.3531 263° West 380 437 30,000  Level Chicago Center
Tue 07:59:09 PM 42.8928 -84.4953 262° West 380 437 30,000  Level Chicago Center
Tue 08:00:11 PM 42.8781 -84.6372 262° West 379 436 30,000  Level Chicago Center
Tue 08:01:13 PM 42.8642 -84.7817 263° West 382 440 30,000  Level Chicago Center
Tue 08:02:15 PM 42.8456 -84.9528 262° West 383 441 30,000  Level Chicago Center
Tue 08:03:17 PM 42.8303 -85.0975 262° West 385 443 30,000 -387 Level Chicago Center
Tue 08:04:19 PM 42.8144 -85.2422 262° West 387 445 29,200 -871 Descending Chicago Center
Tue 08:05:21 PM 42.7989 -85.3883 262° West 388 447 28,200 -968 Descending Chicago Center
Tue 08:06:23 PM 42.7803 -85.5328 260° West 388 447 27,200 -1,161 Descending Chicago Center
Tue 08:07:25 PM 42.7542 -85.6783 256° West 392 451 25,800 -1,392 Descending Chicago Center
Tue 08:08:28 PM 42.7275 -85.8214 256° West 390 449 24,300 -1,452 Descending Chicago Center
Tue 08:09:29 PM 42.7033 -85.9608 257° West 379 436 22,800 -1,610 Descending Chicago Center
Tue 08:10:31 PM 42.6722 -86.1261 256° West 374 430 21,000 -1,355 Descending Chicago Center
Tue 08:11:33 PM 42.6469 -86.2636 256° West 372 428 20,000 -919 Descending Chicago Center
Tue 08:12:35 PM 42.6217 -86.3964 256° West 366 421 19,100 -1,632 Descending Chicago Center
Tue 08:13:38 PM 42.5964 -86.5294 256° West 364 419 16,600 -2,352 Descending Chicago Center
Tue 08:14:40 PM 42.5719 -86.6583 256° West 354 407 14,200 -2,129 Descending Chicago Center
Tue 08:15:42 PM 42.5456 -86.7886 255° West 358 412 12,200 -1,887 Descending Chicago Center
Tue 08:16:44 PM 42.5025 -86.9392 249° West 359 413 10,300 -968 Descending Chicago Center
Tue 08:17:46 PM 42.4678 -87.0628 249° West 354 407 10,200 -48 Descending Chicago Center
Tue 08:18:48 PM 42.4336 -87.1839 249° West 348 400 10,200 -532 Level Chicago Center
Tue 08:19:50 PM 42.4050 -87.2894 250° West 309 356 9,100 -1,161 Descending Chicago Center
Tue 08:20:52 PM 42.3656 -87.3825 240° Southwest 290 334 7,800 -1,065 Descending Chicago Center
Tue 08:21:54 PM 42.3214 -87.4850 240° Southwest 278 320 6,900 -435 Descending Chicago Center
Tue 08:22:56 PM 42.2800 -87.5789 239° Southwest 278 320 6,900 -484 Level Chicago Center
Tue 08:23:58 PM 42.2203 -87.6497 221° Southwest 285 328 5,900 -912 Descending Chicago Center
Tue 08:25:01 PM 42.1633 -87.7136 220° Southwest 273 314 5,000 -1,056 Descending Chicago Center
Tue 08:25:46 PM 42.1167 -87.7667 220° Southwest 237 273 4,000 -1,245 Descending Chicago TRACON
Tue 08:26:47 PM 42.0833 -87.8167 228° Southwest 192 221 2,800 -1,134 Descending Chicago TRACON
Tue 08:27:53 PM 42.0333 -87.8500 206° Southwest 164 189 1,600 -900 Descending Chicago TRACON
Tue 08:28:47 PM 42.0000 -87.8833 217° Southwest 139 160 1,000 -667 Descending Chicago TRACON
Tue 08:31:00 PM 41.9817 -87.9067 217° Southwest  Level Estimated

Login

Don't have an account? Register now (free) for customized features, flight alerts, and more!